Time;durP1;ratioP1;P1;durP2;ratioP2;P2;SDS_P1;SDS_P2;PMS_P1;PMS_P2;Temp;Humidity;BMP_temperature;BMP_pressure;BME280_temperature;BME280_humidity;BME280_pressure;Samples;Min_cycle;Max_cycle;Signal;HPM_P1;HPM_P2
2022/04/26 03:37:50;;;;;;;25.77;15.85;;;6.30;9.20;;;;;;5074271;28;20036;-87
2022/04/26 03:40:16;;;;;;;31.50;16.80;;;6.40;95.00;;;;;;5072325;28;20039;-87
2022/04/26 03:42:41;;;;;;;31.55;16.17;;;6.40;99.90;;;;;;5055980;28;20627;-88
2022/04/26 03:45:07;;;;;;;28.55;17.15;;;6.30;50.40;;;;;;5071099;28;20044;-87
2022/04/26 03:47:33;;;;;;;26.92;17.13;;;6.30;99.90;;;;;;5055498;28;20185;-86
2022/04/26 03:49:59;;;;;;;29.83;15.88;;;6.40;91.80;;;;;;5052047;28;20568;-87
2022/04/26 03:52:24;;;;;;;26.38;16.40;;;6.40;43.20;;;;;;5058158;28;20062;-87
2022/04/26 03:54:50;;;;;;;32.33;16.17;;;6.40;53.90;;;;;;5075535;28;20032;-87
2022/04/26 03:57:16;;;;;;;32.08;16.70;;;6.40;26.70;;;;;;5059407;28;20502;-87
2022/04/26 03:59:41;;;;;;;28.60;15.65;;;6.40;7.40;;;;;;5088986;28;20040;-87
2022/04/26 04:02:07;;;;;;;28.02;15.20;;;6.50;99.90;;;;;;5067853;28;20278;-87
2022/04/26 04:04:33;;;;;;;21.52;14.40;;;6.60;99.80;;;;;;5054952;28;20293;-87
2022/04/26 04:07:00;;;;;;;22.52;15.57;;;6.60;1.00;;;;;;5074610;28;20051;-86
2022/04/26 04:09:25;;;;;;;25.77;14.10;;;6.60;1.00;;;;;;5070863;28;20124;-87
2022/04/26 04:11:52;;;;;;;23.90;14.18;;;6.50;1.00;;;;;;5057992;28;20186;-86
2022/04/26 04:14:18;;;;;;;19.73;13.30;;;6.60;1.00;;;;;;5070290;28;20480;-88
2022/04/26 04:16:44;;;;;;;25.10;13.35;;;6.60;1.00;;;;;;5062044;28;20047;-87
2022/04/26 04:19:18;;;;;;;27.40;14.45;;;6.60;1.00;;;;;;5055145;28;20047;-87
2022/04/26 04:21:45;;;;;;;22.30;13.73;;;6.60;1.00;;;;;;5068399;28;20105;-88
2022/04/26 04:24:12;;;;;;;20.77;12.70;;;6.60;1.00;;;;;;5068465;28;20048;-87
2022/04/26 04:26:38;;;;;;;22.40;11.90;;;6.70;1.00;;;;;;5058680;28;20286;-86
2022/04/26 04:29:05;;;;;;;26.40;13.35;;;6.70;1.00;;;;;;5054862;28;20039;-86
2022/04/26 04:31:31;;;;;;;25.92;12.23;;;6.70;1.00;;;;;;5057041;28;20051;-87
2022/04/26 04:33:57;;;;;;;17.52;11.05;;;6.80;11.00;;;;;;5058207;28;20597;-87
2022/04/26 04:36:22;;;;;;;27.95;12.52;;;6.80;1.00;;;;;;5055546;28;20064;-87
2022/04/26 04:38:48;;;;;;;30.10;12.75;;;6.80;1.00;;;;;;5059317;28;20036;-87
2022/04/26 04:41:14;;;;;;;23.58;11.30;;;6.90;1.00;;;;;;5064390;28;20510;-87
2022/04/26 04:43:40;;;;;;;18.70;11.20;;;6.90;1.00;;;;;;5052028;28;20123;-86
2022/04/26 04:46:06;;;;;;;26.88;10.85;;;6.90;1.00;;;;;;5058067;28;20194;-87
2022/04/26 04:48:32;;;;;;;20.30;10.77;;;6.90;99.90;;;;;;5056051;28;20080;-87
2022/04/26 04:51:00;;;;;;;22.38;9.77;;;6.90;99.90;;;;;;5062982;28;20040;-86
2022/04/26 04:53:26;;;;;;;17.40;9.43;;;6.90;99.90;;;;;;5068935;28;20367;-87
2022/04/26 04:55:51;;;;;;;17.73;9.23;;;7.00;99.90;;;;;;5069720;28;20040;-87
2022/04/26 04:58:17;;;;;;;24.35;9.23;;;7.00;99.90;;;;;;5066694;28;20032;-87
2022/04/26 05:00:43;;;;;;;20.85;9.27;;;6.90;99.90;;;;;;5085736;28;20052;-87
2022/04/26 05:03:09;;;;;;;17.45;8.43;;;7.00;99.90;;;;;;5059692;28;20039;-87
2022/04/26 05:05:35;;;;;;;20.02;7.93;;;7.00;99.90;;;;;;5048732;28;20061;-87
2022/04/26 05:08:05;;;;;;;15.13;8.10;;;7.00;99.90;;;;;;5056423;28;20188;-86
2022/04/26 05:10:33;;;;;;;16.85;7.97;;;7.00;99.90;;;;;;5074509;28;20051;-87
2022/04/26 05:12:59;;;;;;;14.90;7.88;;;7.10;99.90;;;;;;5074517;28;20055;-87
2022/04/26 05:15:25;;;;;;;14.77;7.95;;;7.10;99.90;;;;;;5073279;28;20032;-87
2022/04/26 05:17:52;;;;;;;13.95;7.90;;;7.10;99.90;;;;;;5061679;28;20453;-87
2022/04/26 05:20:20;;;;;;;16.50;7.15;;;7.30;99.90;;;;;;5068745;28;20028;-86
2022/04/26 05:25:34;;;;;;;13.00;6.97;;;7.30;99.90;;;;;;5083167;28;20563;-88
2022/04/26 05:28:01;;;;;;;16.08;7.97;;;7.40;99.90;;;;;;5053690;28;20528;-88
2022/04/26 05:30:29;;;;;;;15.18;7.15;;;7.40;99.90;;;;;;5053136;28;20051;-88
2022/04/26 05:32:55;;;;;;;13.30;6.57;;;7.40;99.90;;;;;;5057164;28;20046;-88
2022/04/26 05:35:22;;;;;;;15.88;7.65;;;7.40;99.90;;;;;;5070166;28;20139;-88
2022/04/26 05:37:48;;;;;;;14.18;7.53;;;7.40;99.90;;;;;;5052713;28;20043;-87
2022/04/26 05:40:14;;;;;;;12.07;7.20;;;7.40;37.60;;;;;;5064714;28;20124;-87
2022/04/26 05:42:40;;;;;;;16.83;7.60;;;7.50;19.40;;;;;;5057429;28;20480;-88
2022/04/26 05:45:15;;;;;;;20.48;7.35;;;7.60;1.00;;;;;;5058509;28;20032;-87
2022/04/26 05:47:41;;;;;;;;;;;7.70;1.00;;;;;;5058083;28;20052;-88
2022/04/26 05:50:08;;;;;;;15.43;6.68;;;7.80;1.00;;;;;;5055756;28;19924;-87
2022/04/26 05:52:37;;;;;;;11.57;6.60;;;7.90;1.00;;;;;;5068814;28;20052;-87
2022/04/26 05:55:05;;;;;;;15.95;7.03;;;7.90;1.00;;;;;;5058045;28;20059;-87
2022/04/26 05:57:31;;;;;;;13.02;6.80;;;8.00;1.00;;;;;;5053770;28;20499;-88
2022/04/26 05:59:57;;;;;;;12.70;6.57;;;8.00;1.00;;;;;;5057288;28;20062;-87
2022/04/26 06:02:23;;;;;;;13.52;6.68;;;8.00;99.90;;;;;;5052538;28;20036;-88
2022/04/26 06:04:49;;;;;;;15.00;7.05;;;8.10;99.90;;;;;;5065650;28;20341;-87
2022/04/26 06:07:17;;;;;;;13.05;7.05;;;8.10;99.90;;;;;;5068040;28;20150;-88
2022/04/26 06:09:43;;;;;;;11.45;7.15;;;8.20;99.90;;;;;;5063554;28;20090;-87
2022/04/26 06:12:09;;;;;;;11.80;6.93;;;8.30;99.90;;;;;;5053427;28;20040;-87
2022/04/26 06:14:35;;;;;;;14.18;6.60;;;8.30;99.90;;;;;;5064026;28;20573;-87
2022/04/26 06:17:00;;;;;;;16.85;6.45;;;8.30;99.90;;;;;;5058078;28;20127;-89
2022/04/26 06:19:26;;;;;;;13.45;6.55;;;8.40;99.90;;;;;;5068759;28;20032;-87
2022/04/26 06:21:52;;;;;;;13.18;6.32;;;8.40;99.90;;;;;;5076179;28;20410;-88
2022/04/26 06:24:20;;;;;;;13.75;6.97;;;8.40;99.90;;;;;;5062460;28;20044;-87
2022/04/26 06:26:46;;;;;;;11.68;5.70;;;8.60;99.90;;;;;;5052649;28;20378;-88
2022/04/26 06:29:11;;;;;;;14.25;5.60;;;8.70;99.90;;;;;;5066703;28;20135;-87
2022/04/26 06:31:37;;;;;;;15.98;5.60;;;8.80;99.90;;;;;;5058954;28;20249;-88
2022/04/26 06:34:03;;;;;;;12.30;5.75;;;8.90;99.90;;;;;;5084792;28;20201;-87
2022/04/26 06:36:29;;;;;;;10.27;5.20;;;8.90;99.90;;;;;;5068279;28;20087;-87
2022/04/26 06:38:54;;;;;;;12.15;5.72;;;8.90;99.90;;;;;;5051574;28;20037;-89
2022/04/26 06:41:20;;;;;;;19.25;6.07;;;9.00;99.90;;;;;;5057519;28;20119;-87
2022/04/26 06:43:49;;;;;;;9.80;4.80;;;9.00;99.90;;;;;;5065689;28;20139;-87
2022/04/26 06:46:15;;;;;;;15.05;4.95;;;8.90;99.90;;;;;;5055700;28;20184;-88
2022/04/26 06:48:41;;;;;;;11.95;5.18;;;9.10;99.90;;;;;;5080766;28;20574;-88
2022/04/26 06:51:07;;;;;;;12.07;5.35;;;9.20;99.90;;;;;;5063639;28;20385;-88
2022/04/26 06:53:34;;;;;;;10.57;4.47;;;9.20;99.90;;;;;;5088081;28;20048;-87
2022/04/26 06:56:01;;;;;;;10.98;4.50;;;9.00;84.70;;;;;;5060163;28;20043;-87
2022/04/26 06:58:30;;;;;;;7.25;4.28;;;9.00;99.90;;;;;;5060462;28;20036;-87
2022/04/26 07:00:56;;;;;;;13.43;4.55;;;9.10;99.90;;;;;;5059261;28;20418;-87
2022/04/26 07:03:21;;;;;;;15.25;3.97;;;9.00;99.90;;;;;;5056951;28;20036;-87
2022/04/26 07:05:47;;;;;;;8.90;3.70;;;9.00;53.30;;;;;;5053762;28;20040;-87
2022/04/26 07:08:13;;;;;;;10.68;4.03;;;9.10;30.30;;;;;;5054450;28;20089;-87
2022/04/26 07:10:38;;;;;;;8.13;4.28;;;9.20;89.30;;;;;;5072275;28;20052;-89
2022/04/26 07:13:04;;;;;;;6.32;4.13;;;9.20;70.50;;;;;;5071697;28;20044;-87
2022/04/26 07:15:33;;;;;;;10.20;4.07;;;9.20;99.90;;;;;;5056594;28;20029;-87
2022/04/26 07:17:59;;;;;;;9.70;3.78;;;9.00;71.40;;;;;;5061656;28;20032;-87
2022/04/26 07:20:26;;;;;;;9.02;3.80;;;9.00;43.60;;;;;;5064902;28;20032;-87
2022/04/26 07:22:52;;;;;;;9.60;4.35;;;9.10;93.10;;;;;;5054720;28;20043;-87
2022/04/26 07:25:18;;;;;;;11.02;3.70;;;8.90;91.30;;;;;;5061854;28;20036;-88
2022/04/26 07:27:44;;;;;;;11.40;3.90;;;8.80;54.50;;;;;;5063344;28;20120;-88
2022/04/26 07:30:13;;;;;;;8.38;4.15;;;8.80;1.00;;;;;;5070542;28;20154;-87
2022/04/26 07:35:23;;;;;;;9.50;4.18;;;8.80;1.00;;;;;;5070532;28;20097;-88
2022/04/26 07:37:48;;;;;;;12.50;3.92;;;8.80;9.20;;;;;;5046410;28;20032;-87
2022/04/26 07:40:14;;;;;;;8.38;3.80;;;8.90;1.00;;;;;;5069667;28;20040;-88
2022/04/26 07:42:40;;;;;;;8.90;4.38;;;9.30;1.00;;;;;;5062165;28;20095;-87
2022/04/26 07:45:09;;;;;;;6.38;3.60;;;9.70;1.00;;;;;;5072186;28;20043;-88
2022/04/26 07:47:38;;;;;;;8.10;3.63;;;10.10;1.00;;;;;;5088009;28;20044;-87
2022/04/26 07:50:04;;;;;;;6.13;3.53;;;9.80;1.00;;;;;;5054325;28;20055;-87
2022/04/26 07:52:31;;;;;;;6.97;3.83;;;9.50;99.90;;;;;;5055527;28;20408;-89
2022/04/26 07:54:57;;;;;;;10.80;3.90;;;9.50;1.00;;;;;;5057402;28;20429;-88
2022/04/26 07:57:23;;;;;;;7.05;3.10;;;9.60;1.00;;;;;;5062258;28;20037;-88
2022/04/26 07:59:49;;;;;;;6.75;3.47;;;9.50;1.00;;;;;;5065794;28;20052;-88
2022/04/26 08:02:15;;;;;;;8.90;3.70;;;9.70;1.00;;;;;;5052816;28;20040;-88
2022/04/26 08:04:41;;;;;;;8.85;3.78;;;10.10;1.00;;;;;;5061014;28;20519;-87
2022/04/26 08:07:10;;;;;;;10.73;3.90;;;10.40;99.90;;;;;;5056111;28;20341;-87
2022/04/26 08:09:38;;;;;;;12.13;4.25;;;10.10;1.00;;;;;;5071439;28;20050;-87
2022/04/26 08:12:04;;;;;;;8.95;3.88;;;9.90;1.00;;;;;;5056480;28;20039;-87
2022/04/26 08:14:30;;;;;;;8.95;4.10;;;9.70;99.90;;;;;;5068915;28;20098;-87
2022/04/26 08:16:56;;;;;;;8.20;4.32;;;9.60;1.00;;;;;;5066868;28;20506;-87
2022/04/26 08:19:28;;;;;;;8.35;4.38;;;9.50;1.00;;;;;;5062545;28;20052;-87
2022/04/26 08:21:53;;;;;;;8.68;3.88;;;9.80;1.00;;;;;;5054042;28;20036;-86
2022/04/26 08:29:55;;;;;;;5.90;3.78;;;9.90;99.90;;;;;;5082245;27;20040;-88
2022/04/26 08:32:28;;;;;;;8.80;4.80;;;10.10;99.90;;;;;;5051540;28;20043;-88
2022/04/26 08:34:55;;;;;;;6.63;3.90;;;10.50;99.90;;;;;;5061495;28;20048;-87
2022/04/26 08:37:20;;;;;;;6.18;3.70;;;10.80;1.00;;;;;;5076031;28;20039;-87
2022/04/26 08:39:52;;;;;;;6.75;3.72;;;10.60;99.90;;;;;;5058262;28;20044;-87
2022/04/26 08:42:37;;;;;;;8.65;3.72;;;10.70;99.90;;;;;;5069765;28;20040;-86
2022/04/26 08:45:05;;;;;;;9.98;4.30;;;10.30;99.90;;;;;;5068539;28;20129;-87
2022/04/26 08:53:01;;;;;;;7.10;4.10;;;11.50;99.90;;;;;;5068758;28;20510;-86
2022/04/26 08:55:33;;;;;;;7.28;3.85;;;11.60;99.90;;;;;;5068139;28;20040;-87
2022/04/26 08:57:59;;;;;;;7.63;3.55;;;11.50;99.90;;;;;;5071861;28;20036;-88
2022/04/26 09:00:25;;;;;;;5.45;3.45;;;11.20;99.90;;;;;;5059558;28;20044;-86
2022/04/26 09:03:02;;;;;;;6.15;3.08;;;10.80;99.90;;;;;;5054668;28;20420;-87
2022/04/26 09:05:29;;;;;;;8.90;3.40;;;11.30;99.90;;;;;;5068241;28;20408;-87
2022/04/26 09:07:54;;;;;;;8.63;3.88;;;11.20;99.90;;;;;;5056460;28;20047;-86
2022/04/26 09:10:21;;;;;;;7.35;3.38;;;10.90;99.90;;;;;;5058348;28;20048;-87
2022/04/26 09:13:10;;;;;;;8.77;4.22;;;11.20;99.90;;;;;;5087636;28;20058;-87
2022/04/26 09:15:49;;;;;;;8.27;3.60;;;11.30;99.90;;;;;;5056989;28;20131;-87
2022/04/26 09:18:20;;;;;;;6.10;3.45;;;10.80;99.90;;;;;;5072030;28;20099;-87
2022/04/26 09:20:48;;;;;;;8.38;3.40;;;10.80;99.90;;;;;;5070330;28;20043;-87
2022/04/26 09:23:26;;;;;;;6.63;3.55;;;10.80;99.90;;;;;;5073421;28;20086;-87
2022/04/26 09:25:58;;;;;;;9.80;3.40;;;11.60;99.90;;;;;;5056657;28;20073;-86
2022/04/26 09:28:29;;;;;;;8.20;3.10;;;12.00;99.90;;;;;;5075424;28;20047;-86
2022/04/26 09:30:56;;;;;;;6.07;2.90;;;12.40;99.90;;;;;;5071154;28;20162;-87
2022/04/26 09:33:40;;;;;;;6.35;3.17;;;12.00;99.90;;;;;;5064415;28;20037;-88
2022/04/26 09:36:11;;;;;;;6.93;3.50;;;12.20;99.90;;;;;;5051712;28;20052;-87
2022/04/26 09:38:47;;;;;;;8.55;3.70;;;12.50;99.90;;;;;;5083278;28;20435;-87
2022/04/26 09:41:13;;;;;;;7.25;3.00;;;12.80;99.90;;;;;;5055100;28;20037;-87
2022/04/26 09:43:40;;;;;;;5.95;2.90;;;12.40;99.90;;;;;;5054679;28;20051;-86
2022/04/26 09:46:06;;;;;;;6.28;2.80;;;12.10;99.90;;;;;;5053896;28;20055;-87
2022/04/26 09:48:36;;;;;;;6.93;2.83;;;12.40;99.90;;;;;;5053083;28;20406;-88
2022/04/26 09:51:04;;;;;;;5.18;2.80;;;12.50;99.90;;;;;;5055767;28;20917;-87
2022/04/26 09:53:30;;;;;;;6.30;3.22;;;13.50;99.90;;;;;;5072603;28;20040;-86
2022/04/26 09:55:57;;;;;;;6.90;3.35;;;13.20;99.90;;;;;;5069982;28;20043;-87
2022/04/26 09:58:24;;;;;;;8.55;3.47;;;13.30;99.90;;;;;;5074465;28;20225;-86
2022/04/26 10:00:51;;;;;;;7.05;3.67;;;12.40;99.90;;;;;;5067456;28;20067;-86
2022/04/26 10:03:22;;;;;;;7.18;3.35;;;11.40;99.90;;;;;;5074592;28;20105;-87
2022/04/26 10:05:50;;;;;;;8.93;3.13;;;11.00;99.90;;;;;;5055714;28;20133;-86
2022/04/26 10:08:18;;;;;;;10.43;3.30;;;10.80;99.90;;;;;;5088231;28;20178;-87
2022/04/26 10:10:44;;;;;;;8.57;3.50;;;11.30;99.90;;;;;;5065144;28;20036;-87
2022/04/26 10:13:32;;;;;;;6.93;3.33;;;12.00;99.90;;;;;;5055986;28;20086;-87
2022/04/26 10:16:00;;;;;;;9.25;3.25;;;12.50;99.90;;;;;;5070147;28;20056;-87
2022/04/26 10:18:31;;;;;;;4.07;2.92;;;13.30;99.90;;;;;;5075031;28;20436;-87
2022/04/26 10:20:58;;;;;;;6.15;3.28;;;12.70;99.90;;;;;;5069161;28;20509;-87
2022/04/26 10:23:24;;;;;;;7.53;3.30;;;12.40;99.90;;;;;;5058673;28;20063;-87
2022/04/26 10:29:01;;;;;;;5.40;2.90;;;12.10;99.90;;;;;;5089897;28;20044;-87
2022/04/26 10:31:44;;;;;;;8.30;3.28;;;11.40;99.90;;;;;;5058289;28;20119;-87
2022/04/26 10:34:16;;;;;;;8.52;3.60;;;11.70;99.90;;;;;;5068808;28;20079;-87
2022/04/26 10:36:45;;;;;;;7.32;3.13;;;12.20;99.90;;;;;;5060025;28;20040;-87
2022/04/26 10:39:17;;;;;;;3.92;2.70;;;12.40;99.90;;;;;;5073423;28;20546;-87
2022/04/26 10:41:45;;;;;;;5.20;2.92;;;12.50;99.90;;;;;;5057987;28;20270;-86
2022/04/26 10:44:14;;;;;;;6.70;3.42;;;12.80;99.90;;;;;;5071065;28;20044;-87
2022/04/26 10:46:51;;;;;;;7.65;3.10;;;12.70;99.90;;;;;;5063273;28;20154;-88
2022/04/26 10:49:42;;;;;;;6.20;3.20;;;12.30;99.90;;;;;;5056166;28;20036;-86
2022/04/26 10:52:22;;;;;;;3.67;2.30;;;12.70;99.90;;;;;;5082344;28;20048;-87
2022/04/26 10:55:03;;;;;;;6.40;2.88;;;13.30;99.90;;;;;;5077042;28;20404;-87
2022/04/26 10:57:31;;;;;;;7.72;3.03;;;12.70;99.90;;;;;;5072790;28;20046;-87
2022/04/26 11:00:05;;;;;;;4.72;2.55;;;12.50;99.90;;;;;;5057948;28;20199;-86
2022/04/26 11:02:33;;;;;;;5.28;2.67;;;12.00;99.90;;;;;;5063239;28;20425;-87
2022/04/26 11:05:16;;;;;;;7.55;3.00;;;11.60;99.90;;;;;;5071345;28;20036;-86
2022/04/26 11:07:44;;;;;;;6.15;2.83;;;12.30;99.90;;;;;;5075364;28;20035;-87
2022/04/26 11:10:12;;;;;;;6.30;2.80;;;13.30;99.90;;;;;;5076349;28;20036;-87
2022/04/26 11:12:39;;;;;;;6.07;2.85;;;12.50;99.90;;;;;;5055296;28;20047;-87
2022/04/26 11:15:11;;;;;;;4.95;2.83;;;12.30;99.90;;;;;;5068350;28;20442;-87
2022/04/26 11:17:38;;;;;;;5.03;2.85;;;12.60;99.90;;;;;;5064973;28;20699;-86
2022/04/26 11:20:10;;;;;;;6.53;3.17;;;13.20;99.90;;;;;;5064990;28;20049;-87
2022/04/26 11:22:49;;;;;;;5.78;2.97;;;12.70;99.90;;;;;;5074847;28;20118;-87
2022/04/26 11:28:09;;;;;;;6.05;2.90;;;12.50;99.90;;;;;;5071043;28;20373;-88
2022/04/26 11:30:44;;;;;;;4.95;2.85;;;12.90;99.90;;;;;;5054935;28;20068;-85
2022/04/26 11:33:15;;;;;;;6.43;3.40;;;13.10;99.90;;;;;;5057286;28;20052;-86
2022/04/26 11:35:42;;;;;;;7.43;3.40;;;12.30;99.90;;;;;;5055490;28;20038;-86
2022/04/26 11:38:14;;;;;;;8.23;3.50;;;11.80;99.90;;;;;;5073808;28;20036;-87
2022/04/26 11:40:42;;;;;;;6.47;3.22;;;11.80;99.90;;;;;;5056100;28;20151;-87
2022/04/26 11:43:13;;;;;;;4.35;3.28;;;12.60;99.90;;;;;;5070220;28;20067;-87
2022/04/26 11:45:42;;;;;;;8.55;2.90;;;12.30;99.90;;;;;;5061159;28;20069;-88
2022/04/26 11:48:10;;;;;;;7.47;3.13;;;13.10;99.90;;;;;;5058356;28;20087;-87
2022/04/26 11:50:36;;;;;;;4.75;2.90;;;13.10;99.90;;;;;;5086160;28;21301;-88
2022/04/26 11:53:10;;;;;;;7.75;3.10;;;13.20;99.90;;;;;;5058392;28;20384;-87
2022/04/26 11:55:41;;;;;;;8.18;3.40;;;14.30;99.90;;;;;;5060798;28;20467;-87
2022/04/26 11:58:19;;;;;;;5.22;2.90;;;14.10;99.90;;;;;;5062631;28;20245;-88
2022/04/26 12:00:57;;;;;;;7.90;3.40;;;12.90;99.90;;;;;;5064958;28;20485;-87
2022/04/26 12:03:29;;;;;;;6.07;3.05;;;12.80;99.90;;;;;;5068636;28;20136;-88
2022/04/26 12:06:00;;;;;;;6.53;2.85;;;13.00;99.90;;;;;;5057953;28;20052;-87
2022/04/26 12:08:27;;;;;;;7.72;2.90;;;13.00;99.90;;;;;;5055596;28;20040;-87
2022/04/26 12:10:53;;;;;;;6.20;3.05;;;13.20;99.90;;;;;;5074188;28;20079;-88
2022/04/26 12:13:31;;;;;;;6.95;2.88;;;14.00;99.90;;;;;;5087238;28;20048;-87
2022/04/26 12:16:16;;;;;;;8.38;2.80;;;13.90;99.90;;;;;;5058162;28;20056;-88
2022/04/26 12:18:50;;;;;;;6.50;2.97;;;13.40;99.90;;;;;;5068392;28;20035;-87
2022/04/26 12:21:16;;;;;;;7.00;2.87;;;13.30;99.90;;;;;;5058302;28;20316;-87
2022/04/26 12:23:42;;;;;;;7.38;2.92;;;14.20;99.90;;;;;;5057210;28;20044;-87
2022/04/26 12:26:09;;;;;;;6.63;2.90;;;14.80;99.90;;;;;;5056782;28;20065;-88
2022/04/26 12:28:54;;;;;;;3.35;2.60;;;13.20;99.90;;;;;;5062511;28;20048;-87
2022/04/26 12:31:26;;;;;;;5.22;2.42;;;12.40;99.90;;;;;;5061879;28;20047;-88
2022/04/26 12:34:13;;;;;;;6.13;2.88;;;13.50;99.90;;;;;;5052843;28;20831;-87
2022/04/26 12:37:15;;;;;;;4.65;2.92;;;13.40;99.90;;;;;;5064585;28;20040;-87
2022/04/26 12:39:41;;;;;;;5.63;2.72;;;14.20;99.90;;;;;;5067880;28;20304;-89
2022/04/26 12:42:08;;;;;;;5.63;2.45;;;15.30;99.90;;;;;;5069123;28;20483;-87
2022/04/26 12:44:37;;;;;;;3.85;2.55;;;14.60;99.90;;;;;;5071162;28;20051;-88
2022/04/26 12:52:56;;;;;;;5.40;2.92;;;12.80;99.90;;;;;;5084532;28;20048;-89
2022/04/26 12:55:35;;;;;;;6.97;3.03;;;13.20;99.90;;;;;;5071844;28;20093;-87
2022/04/26 12:58:06;;;;;;;4.88;2.90;;;12.30;99.90;;;;;;5056091;28;20032;-87
2022/04/26 13:00:35;;;;;;;5.75;2.90;;;12.10;99.90;;;;;;5074106;28;20627;-88
2022/04/26 13:03:05;;;;;;;7.32;3.13;;;12.50;99.90;;;;;;5058280;28;20471;-88
2022/04/26 13:05:48;;;;;;;4.65;2.70;;;13.80;99.90;;;;;;5075363;28;20032;-86
2022/04/26 13:08:21;;;;;;;4.93;2.95;;;13.70;99.90;;;;;;5082911;28;20060;-89
2022/04/26 13:10:48;;;;;;;4.72;2.65;;;12.90;99.90;;;;;;5059107;28;20298;-87
2022/04/26 13:13:15;;;;;;;6.50;2.80;;;12.50;99.90;;;;;;5062142;28;20044;-89
2022/04/26 13:15:41;;;;;;;4.35;2.97;;;12.40;99.90;;;;;;5066079;28;20036;-88
2022/04/26 13:18:09;;;;;;;5.50;2.80;;;12.60;99.90;;;;;;5057968;28;20430;-88
2022/04/26 13:20:35;;;;;;;5.75;3.00;;;13.50;99.90;;;;;;5064228;28;20040;-88
2022/04/26 13:23:01;;;;;;;4.90;3.00;;;14.00;99.90;;;;;;5057582;28;20109;-87
2022/04/26 13:25:27;;;;;;;5.45;3.00;;;13.90;99.90;;;;;;5049500;28;20448;-86
2022/04/26 13:27:53;;;;;;;3.85;2.60;;;14.10;99.90;;;;;;5053279;28;20105;-87
2022/04/26 13:30:19;;;;;;;4.78;2.63;;;14.50;99.90;;;;;;5063095;28;20442;-88
2022/04/26 13:32:45;;;;;;;4.20;2.90;;;14.40;99.90;;;;;;5066135;28;20161;-88
2022/04/26 13:35:11;;;;;;;6.18;2.80;;;14.10;99.90;;;;;;5072671;28;20479;-88
2022/04/26 13:37:38;;;;;;;4.40;2.80;;;13.80;99.90;;;;;;5056450;28;20040;-89
2022/04/26 13:40:05;;;;;;;5.60;2.75;;;14.70;99.90;;;;;;5067502;28;20037;-88
2022/04/26 13:42:31;;;;;;;4.78;3.10;;;13.90;99.90;;;;;;5061585;28;20036;-89
2022/04/26 13:44:58;;;;;;;6.25;3.38;;;14.10;99.90;;;;;;5059690;28;20036;-88
2022/04/26 13:47:25;;;;;;;8.43;3.17;;;14.90;99.90;;;;;;5060148;28;20036;-88
2022/04/26 13:49:53;;;;;;;4.43;2.85;;;15.10;99.90;;;;;;5068875;28;20132;-86
2022/04/26 13:52:20;;;;;;;5.82;2.97;;;13.90;99.90;;;;;;5058764;28;20047;-88
2022/04/26 13:54:46;;;;;;;6.28;3.35;;;13.10;99.90;;;;;;5066176;28;20049;-88
2022/04/26 13:57:12;;;;;;;10.10;3.47;;;14.20;99.90;;;;;;5055729;28;21373;-88
2022/04/26 13:59:38;;;;;;;8.88;3.60;;;15.00;99.90;;;;;;5084123;28;20056;-89
2022/04/26 14:02:06;;;;;;;9.85;3.53;;;14.90;99.90;;;;;;5058998;28;20130;-88
2022/04/26 14:04:33;;;;;;;7.85;3.15;;;15.10;99.90;;;;;;5068581;28;20472;-89
2022/04/26 14:07:02;;;;;;;7.80;3.58;;;15.40;99.90;;;;;;5057623;28;20036;-87
2022/04/26 14:09:28;;;;;;;4.95;3.80;;;14.80;99.90;;;;;;5060462;28;20036;-89
2022/04/26 14:11:55;;;;;;;5.40;3.25;;;14.20;99.90;;;;;;5083576;28;20140;-87
2022/04/26 14:22:41;;;;;;;7.80;4.00;;;13.40;99.90;;;;;;5077365;28;20119;-88
2022/04/26 14:25:09;;;;;;;7.95;3.55;;;14.40;99.90;;;;;;5066726;28;20097;-87
2022/04/26 14:27:53;;;;;;;7.10;3.63;;;14.40;99.90;;;;;;5058378;28;20040;-88
2022/04/26 14:30:18;;;;;;;6.20;3.35;;;14.60;99.90;;;;;;5063679;28;20154;-88
2022/04/26 14:32:45;;;;;;;5.45;3.50;;;13.80;99.90;;;;;;5074183;28;20082;-88
2022/04/26 14:35:12;;;;;;;5.30;3.50;;;13.40;99.90;;;;;;5087824;28;20063;-88
2022/04/26 14:37:38;;;;;;;7.85;3.65;;;13.40;99.90;;;;;;5058188;28;20044;-87
2022/04/26 14:40:05;;;;;;;6.50;3.30;;;14.40;99.90;;;;;;5070157;28;20523;-88
2022/04/26 14:42:31;;;;;;;4.97;3.13;;;14.40;99.90;;;;;;5076402;28;20040;-88
2022/04/26 14:45:00;;;;;;;4.30;3.22;;;13.90;99.90;;;;;;5086907;28;20394;-87
2022/04/26 14:47:28;;;;;;;4.57;2.75;;;14.40;99.90;;;;;;5087176;28;20123;-88
2022/04/26 14:49:59;;;;;;;4.85;3.38;;;14.30;99.90;;;;;;5074132;28;20047;-87
2022/04/26 14:52:25;;;;;;;6.78;3.33;;;13.90;99.90;;;;;;5092726;28;20040;-87
2022/04/26 14:54:52;;;;;;;5.38;3.10;;;15.10;99.90;;;;;;5060149;28;20040;-88
2022/04/26 14:57:18;;;;;;;6.32;3.42;;;15.30;99.90;;;;;;5063666;28;20048;-88
2022/04/26 14:59:48;;;;;;;5.22;3.33;;;15.10;99.90;;;;;;5058851;28;20139;-87
2022/04/26 15:02:17;;;;;;;7.30;3.22;;;14.90;99.90;;;;;;5059693;28;20524;-89
2022/04/26 15:04:43;;;;;;;4.10;2.63;;;15.30;99.90;;;;;;5059692;28;20040;-88
2022/04/26 15:07:09;;;;;;;5.00;2.90;;;15.20;99.90;;;;;;5060139;28;20061;-88
2022/04/26 15:09:45;;;;;;;5.15;2.80;;;15.10;99.90;;;;;;5085205;28;20059;-88
2022/04/26 15:17:42;;;;;;;6.93;2.65;;;15.00;99.90;;;;;;5084943;28;20036;-88
2022/04/26 15:20:09;;;;;;;7.43;2.70;;;15.40;99.90;;;;;;5057876;28;20051;-87
2022/04/26 15:22:37;;;;;;;5.72;2.72;;;15.60;99.90;;;;;;5078740;28;20044;-88
2022/04/26 15:25:07;;;;;;;6.43;2.97;;;16.30;99.90;;;;;;5058877;28;20125;-88
2022/04/26 15:27:34;;;;;;;4.32;2.60;;;15.40;99.90;;;;;;5060961;28;20073;-89
2022/04/26 15:30:01;;;;;;;5.07;2.45;;;16.40;99.90;;;;;;5075818;28;20484;-88
2022/04/26 15:32:27;;;;;;;5.60;2.38;;;16.50;99.90;;;;;;5067261;28;20036;-88
2022/04/26 15:34:58;;;;;;;6.28;2.70;;;17.40;99.90;;;;;;5060897;28;20078;-88
2022/04/26 15:37:28;;;;;;;3.78;2.60;;;17.10;99.90;;;;;;5061889;28;20089;-87
2022/04/26 15:39:54;;;;;;;4.03;2.60;;;16.60;99.90;;;;;;5062106;28;20028;-88
2022/04/26 15:42:21;;;;;;;6.30;3.20;;;14.40;99.90;;;;;;5074556;28;20573;-88
2022/04/26 15:44:47;;;;;;;5.35;2.75;;;13.30;99.90;;;;;;5079807;28;20040;-88
2022/04/26 15:47:14;;;;;;;6.10;3.00;;;13.20;99.90;;;;;;5070726;28;20348;-89
2022/04/26 15:49:40;;;;;;;3.17;2.42;;;15.30;99.90;;;;;;5059481;28;20080;-88
2022/04/26 15:52:07;;;;;;;5.05;2.60;;;15.70;99.90;;;;;;5057173;28;20085;-87
2022/04/26 15:54:36;;;;;;;5.25;2.88;;;14.50;99.90;;;;;;5071867;28;20113;-89
2022/04/26 15:57:05;;;;;;;4.10;2.80;;;13.50;99.90;;;;;;5071592;28;20126;-88
2022/04/26 15:59:33;;;;;;;4.72;2.70;;;12.50;99.90;;;;;;5059334;28;20048;-88
2022/04/26 16:01:59;;;;;;;5.38;2.70;;;13.10;99.90;;;;;;5061381;28;20127;-89
2022/04/26 16:04:24;;;;;;;5.63;2.95;;;14.20;99.90;;;;;;5059450;28;20181;-88
2022/04/26 16:06:50;;;;;;;6.32;2.88;;;15.70;99.90;;;;;;5060455;28;20040;-88
2022/04/26 16:20:30;;;;;;;5.03;2.65;;;17.20;99.90;;;;;;5074210;28;20044;-89
2022/04/26 16:23:05;;;;;;;5.95;2.85;;;16.60;99.90;;;;;;5060774;28;20029;-89
2022/04/26 16:25:34;;;;;;;5.70;2.90;;;16.90;99.90;;;;;;5058774;28;20506;-89
2022/04/26 16:28:01;;;;;;;4.70;2.75;;;16.10;99.90;;;;;;5059050;28;20063;-88
2022/04/26 16:30:31;;;;;;;5.18;2.55;;;18.40;99.90;;;;;;5061207;28;20042;-89
2022/04/26 16:32:58;;;;;;;3.80;2.50;;;16.90;99.90;;;;;;5071247;28;20170;-90
2022/04/26 16:35:24;;;;;;;5.20;2.47;;;15.20;99.90;;;;;;5053241;28;20112;-89
2022/04/26 16:37:52;;;;;;;4.45;2.78;;;14.70;99.90;;;;;;5067561;28;20032;-89
2022/04/26 16:40:18;;;;;;;5.22;3.20;;;13.70;99.90;;;;;;5061248;28;20550;-89
2022/04/26 16:42:44;;;;;;;6.57;3.05;;;15.40;99.90;;;;;;5061899;28;20120;-89
2022/04/26 16:45:10;;;;;;;5.97;2.65;;;16.20;99.90;;;;;;5070754;28;20040;-89
2022/04/26 16:47:36;;;;;;;4.57;2.58;;;16.00;99.90;;;;;;5060437;28;20062;-89
2022/04/26 16:50:04;;;;;;;4.90;3.00;;;16.40;99.90;;;;;;5072255;28;20526;-89
2022/04/26 16:52:30;;;;;;;7.05;2.80;;;16.00;99.90;;;;;;5059535;28;20043;-89
2022/04/26 16:54:56;;;;;;;4.90;2.50;;;15.60;99.90;;;;;;5071465;28;20437;-89
2022/04/26 16:57:21;;;;;;;6.18;3.15;;;16.50;99.90;;;;;;5061393;28;20066;-89
2022/04/26 16:59:47;;;;;;;8.15;2.75;;;16.00;99.90;;;;;;5075854;28;20040;-88
2022/04/26 17:02:14;;;;;;;5.07;2.67;;;14.10;99.90;;;;;;5059629;28;20522;-90
2022/04/26 17:04:41;;;;;;;6.13;3.10;;;15.40;99.90;;;;;;5065945;28;20036;-89
2022/04/26 17:07:06;;;;;;;5.88;3.10;;;13.60;99.90;;;;;;5071476;28;20040;-88
2022/04/26 17:09:34;;;;;;;7.28;3.38;;;14.50;99.90;;;;;;5070745;28;20040;-89
2022/04/26 17:12:01;;;;;;;4.32;2.63;;;13.60;99.90;;;;;;5058775;28;20052;-89
2022/04/26 17:14:31;;;;;;;7.65;2.97;;;13.10;99.90;;;;;;5067114;28;20115;-90
2022/04/26 17:16:57;;;;;;;5.75;2.92;;;13.30;99.90;;;;;;5069759;28;20032;-88
2022/04/26 17:19:22;;;;;;;7.72;3.03;;;13.80;99.90;;;;;;5070821;28;20495;-87
2022/04/26 17:21:49;;;;;;;6.38;2.78;;;14.20;99.90;;;;;;5057687;28;20047;-89
2022/04/26 17:27:07;;;;;;;4.50;2.90;;;15.10;99.90;;;;;;5083011;28;20124;-89